createdAt,value
2019-03-15T00:01:45.021Z,98207.92
2019-03-15T00:03:51.717Z,98197.92
2019-03-15T00:05:59.315Z,98198.80
2019-03-15T00:08:06.468Z,98200.55
2019-03-15T00:10:14.271Z,98193.15
2019-03-15T00:12:21.568Z,98196.61
2019-03-15T00:14:28.341Z,98195.75
2019-03-15T00:16:35.000Z,98189.66
2019-03-15T00:18:41.746Z,98191.41
2019-03-15T00:20:48.467Z,98180.08
2019-03-15T00:22:55.120Z,98189.21
2019-03-15T00:25:01.985Z,98180.94
2019-03-15T00:27:08.809Z,98186.16
2019-03-15T00:29:15.473Z,98174.42
2019-03-15T00:31:22.152Z,98174.86
2019-03-15T00:33:28.812Z,98173.11
2019-03-15T00:35:35.921Z,98167.88
2019-03-15T00:37:42.874Z,98169.61
2019-03-15T00:39:50.626Z,98169.61
2019-03-15T00:41:57.336Z,98166.11
2019-03-15T00:44:04.026Z,98165.24
2019-03-15T00:46:10.742Z,98163.95
2019-03-15T00:48:17.401Z,98156.10
2019-03-15T00:50:24.088Z,98155.67
2019-03-15T00:52:30.768Z,98153.50
2019-03-15T00:54:37.418Z,98148.70
2019-03-15T00:56:44.097Z,98144.80
2019-03-15T00:58:50.760Z,98146.53
2019-03-15T01:00:57.413Z,98138.27
2019-03-15T01:03:04.102Z,98140.45
2019-03-15T01:05:10.830Z,98139.15
2019-03-15T01:07:17.500Z,98137.84
2019-03-15T01:09:24.178Z,98135.67
2019-03-15T01:11:30.837Z,98131.30
2019-03-15T01:13:37.505Z,98137.83
2019-03-15T01:15:44.187Z,98132.17
2019-03-15T01:17:50.838Z,98126.95
2019-03-15T01:19:57.499Z,98125.65
2019-03-15T01:22:05.284Z,98125.63
2019-03-15T01:24:11.938Z,98127.80
2019-03-15T01:26:18.681Z,98129.53
2019-03-15T01:28:25.367Z,98118.23
2019-03-15T01:30:32.009Z,98113.42
2019-03-15T01:32:38.730Z,98118.20
2019-03-15T01:34:45.423Z,98116.88
2019-03-15T01:36:52.148Z,98113.86
2019-03-15T01:38:58.813Z,98116.88
2019-03-15T01:41:05.565Z,98111.64
2019-03-15T01:43:13.283Z,98113.83
2019-03-15T01:45:20.104Z,98113.39
2019-03-15T01:47:26.859Z,98107.71
2019-03-15T01:49:33.643Z,98109.90
2019-03-15T01:51:41.438Z,98110.75
2019-03-15T01:53:48.503Z,98108.58
2019-03-15T01:55:56.368Z,98105.98
2019-03-15T01:58:03.062Z,98108.57
2019-03-15T02:00:11.625Z,98105.52
2019-03-15T02:02:18.324Z,98112.05
2019-03-15T02:04:24.990Z,98113.38
2019-03-15T02:06:31.692Z,98101.63
2019-03-15T02:08:38.440Z,98100.73
2019-03-15T02:10:46.270Z,98093.34
2019-03-15T02:12:52.951Z,98093.34
2019-03-15T02:14:59.675Z,98096.84
2019-03-15T02:17:06.338Z,98093.77
2019-03-15T02:19:13.022Z,98092.46
2019-03-15T02:21:19.683Z,98091.16
2019-03-15T02:23:26.346Z,98094.22
2019-03-15T02:25:33.045Z,98083.79
2019-03-15T02:27:39.689Z,98088.16
2019-03-15T02:29:46.346Z,98087.73
2019-03-15T02:31:53.030Z,98084.65
2019-03-15T02:34:00.716Z,98081.61
2019-03-15T02:36:07.458Z,98080.73
2019-03-15T02:38:14.210Z,98076.41
2019-03-15T02:40:20.967Z,98077.71
2019-03-15T02:42:27.688Z,98078.58
2019-03-15T02:44:34.451Z,98075.52
2019-03-15T02:46:41.154Z,98077.70
2019-03-15T02:48:47.795Z,98082.50
2019-03-15T02:50:56.161Z,98083.81
2019-03-15T02:53:02.850Z,98074.66
2019-03-15T02:55:09.881Z,98074.20
2019-03-15T02:57:16.564Z,98081.61
2019-03-15T02:59:23.226Z,98076.39
2019-03-15T03:01:29.879Z,98070.73
2019-03-15T03:03:37.582Z,98070.72
2019-03-15T03:05:44.221Z,98078.15
2019-03-15T03:07:51.144Z,98077.27
2019-03-15T03:09:57.874Z,98075.97
2019-03-15T03:12:04.595Z,98071.62
2019-03-15T03:14:11.335Z,98072.03
2019-03-15T03:16:18.761Z,98072.48
2019-03-15T03:18:25.772Z,98067.23
2019-03-15T03:20:32.439Z,98075.95
2019-03-15T03:22:39.203Z,98074.22
2019-03-15T03:24:47.154Z,98067.25
2019-03-15T03:26:54.021Z,98069.84
2019-03-15T03:29:00.775Z,98069.41
2019-03-15T03:31:07.447Z,98065.91
2019-03-15T03:33:14.388Z,98062.86
2019-03-15T03:35:21.341Z,98061.58
2019-03-15T03:37:28.077Z,98056.78
2019-03-15T03:39:34.778Z,98058.95
2019-03-15T03:41:41.584Z,98054.17
2019-03-15T03:43:49.349Z,98051.54
2019-03-15T03:45:56.079Z,98051.98
2019-03-15T03:48:02.788Z,98048.50
2019-03-15T03:50:11.719Z,98051.09
2019-03-15T03:52:18.457Z,98046.73
2019-03-15T03:54:25.222Z,98047.59
2019-03-15T03:56:32.165Z,98046.72
2019-03-15T03:58:38.830Z,98045.86
2019-03-15T04:00:45.554Z,98049.34
2019-03-15T04:02:53.380Z,98048.91
2019-03-15T04:05:00.531Z,98046.28
2019-03-15T04:07:07.228Z,98044.13
2019-03-15T04:09:13.964Z,98041.95
2019-03-15T04:11:20.627Z,98045.02
2019-03-15T04:13:27.340Z,98040.24
2019-03-15T04:15:34.059Z,98042.84
2019-03-15T04:17:40.803Z,98040.69
2019-03-15T04:19:47.491Z,98043.30
2019-03-15T04:21:54.226Z,98039.38
2019-03-15T04:24:00.958Z,98035.86
2019-03-15T04:26:07.672Z,98037.60
2019-03-15T04:28:14.253Z,98028.48
2019-03-15T04:30:20.988Z,98035.45
2019-03-15T04:32:27.753Z,98039.81
2019-03-15T04:34:34.425Z,98031.09
2019-03-15T04:36:41.095Z,98029.77
2019-03-15T04:38:47.865Z,98033.70
2019-03-15T04:40:54.593Z,98036.31
2019-03-15T04:43:01.249Z,98035.43
2019-03-15T04:45:09.507Z,98040.67
2019-03-15T04:47:16.163Z,98035.88
2019-03-15T04:49:22.829Z,98041.53
2019-03-15T04:51:29.536Z,98036.31
2019-03-15T04:53:36.205Z,98031.54
2019-03-15T04:55:42.865Z,98032.40
2019-03-15T04:57:49.830Z,98032.84
2019-03-15T04:59:56.490Z,98028.47
2019-03-15T05:02:03.228Z,98030.21
2019-03-15T05:04:09.897Z,98026.30
2019-03-15T05:06:16.562Z,98028.05
2019-03-15T05:08:23.300Z,98019.77
2019-03-15T05:10:29.982Z,98024.56
2019-03-15T05:12:36.701Z,98021.09
2019-03-15T05:14:44.330Z,98019.78
2019-03-15T05:16:51.470Z,98024.58
2019-03-15T05:18:58.193Z,98019.80
2019-03-15T05:21:04.957Z,98022.39
2019-03-15T05:23:11.676Z,98024.57
2019-03-15T05:25:18.338Z,98025.01
2019-03-15T05:27:24.990Z,98026.75
2019-03-15T05:29:31.821Z,98027.63
2019-03-15T05:31:38.486Z,98028.94
2019-03-15T05:33:45.163Z,98028.95
2019-03-15T05:35:51.842Z,98034.19
2019-03-15T05:37:58.569Z,98030.67
2019-03-15T05:40:08.321Z,98024.15
2019-03-15T05:42:15.085Z,98028.95
2019-03-15T05:44:21.741Z,98027.22
2019-03-15T05:46:29.472Z,98027.63
2019-03-15T05:48:37.233Z,98032.42
2019-03-15T05:50:43.900Z,98028.06
2019-03-15T05:52:50.562Z,98030.25
2019-03-15T05:54:57.188Z,98033.73
2019-03-15T05:57:04.400Z,98033.31
2019-03-15T05:59:11.128Z,98032.00
2019-03-15T06:01:17.828Z,98030.27
2019-03-15T06:03:24.492Z,98028.06
2019-03-15T06:05:31.147Z,98035.91
2019-03-15T06:07:37.837Z,98035.05
2019-03-15T06:09:44.564Z,98033.73
2019-03-15T06:11:51.217Z,98037.66
2019-03-15T06:13:57.901Z,98031.99
2019-03-15T06:16:04.631Z,98040.72
2019-03-15T06:18:11.388Z,98039.38
2019-03-15T06:20:19.084Z,98042.87
2019-03-15T06:22:25.820Z,98036.34
2019-03-15T06:24:32.556Z,98036.78
2019-03-15T06:26:39.235Z,98040.23
2019-03-15T06:28:45.880Z,98039.38
2019-03-15T06:30:52.533Z,98033.70
2019-03-15T06:32:59.209Z,98034.58
2019-03-15T06:35:06.639Z,98032.40
2019-03-15T06:37:13.317Z,98027.14
2019-03-15T06:39:20.063Z,98032.38
2019-03-15T06:41:26.729Z,98029.76
2019-03-15T06:43:33.384Z,98027.57
2019-03-15T06:45:41.805Z,98030.19
2019-03-15T06:47:48.669Z,98042.84
2019-03-15T06:49:55.334Z,98042.41
2019-03-15T06:52:02.116Z,98040.66
2019-03-15T06:54:11.758Z,98042.37
2019-03-15T06:56:17.129Z,98043.24
2019-03-15T06:58:23.732Z,98043.67
2019-03-15T07:00:30.377Z,98043.27
2019-03-15T07:02:37.036Z,98050.69
2019-03-15T07:04:43.799Z,98041.97
2019-03-15T07:06:50.458Z,98037.58
2019-03-15T07:08:57.119Z,98043.67
2019-03-15T07:11:05.250Z,98044.98
2019-03-15T07:13:11.963Z,98048.91
2019-03-15T07:15:18.623Z,98048.48
2019-03-15T07:17:25.311Z,98048.04
2019-03-15T07:19:32.047Z,98047.56
2019-03-15T07:21:38.706Z,98054.98
2019-03-15T07:23:45.391Z,98059.34
2019-03-15T07:25:52.091Z,98051.93
2019-03-15T07:27:58.782Z,98054.11
2019-03-15T07:30:09.207Z,98051.48
2019-03-15T07:32:15.940Z,98057.13
2019-03-15T07:34:22.608Z,98058.00
2019-03-15T07:36:29.332Z,98061.92
2019-03-15T07:38:35.978Z,98057.56
2019-03-15T07:40:42.578Z,98053.63
2019-03-15T07:42:49.257Z,98061.92
2019-03-15T07:44:55.920Z,98062.31
2019-03-15T07:47:02.651Z,98058.37
2019-03-15T07:49:09.349Z,98066.23
2019-03-15T07:51:16.072Z,98065.76
2019-03-15T07:53:22.726Z,98064.87
2019-03-15T07:55:29.402Z,98060.84
2019-03-15T07:57:36.129Z,98057.26
2019-03-15T07:59:42.866Z,98062.94
2019-03-15T08:01:52.591Z,98068.09
2019-03-15T08:03:57.903Z,98065.84
2019-03-15T08:06:04.723Z,98069.34
2019-03-15T08:08:11.481Z,98070.67
2019-03-15T08:10:18.141Z,98073.64
2019-03-15T08:12:24.788Z,98077.97
2019-03-15T08:14:31.540Z,98073.64
2019-03-15T08:16:38.199Z,98079.32
2019-03-15T08:18:44.852Z,98080.69
2019-03-15T08:20:52.549Z,98079.32
2019-03-15T08:22:59.208Z,98084.14
2019-03-15T08:25:07.752Z,98079.74
2019-03-15T08:27:16.111Z,98087.59
2019-03-15T08:29:22.753Z,98093.21
2019-03-15T08:31:29.401Z,98087.53
2019-03-15T08:33:36.090Z,98090.59
2019-03-15T08:35:42.748Z,98092.30
2019-03-15T08:37:49.661Z,98094.38
2019-03-15T08:39:56.531Z,98094.63
2019-03-15T08:42:03.184Z,98094.02
2019-03-15T08:44:09.840Z,98090.39
2019-03-15T08:46:16.514Z,98093.37
2019-03-15T08:48:23.409Z,98096.44
2019-03-15T08:50:30.189Z,98100.92
2019-03-15T08:52:36.870Z,98104.11
2019-03-15T08:54:46.494Z,98103.35
2019-03-15T08:56:51.884Z,98105.21
2019-03-15T08:58:58.544Z,98108.73
2019-03-15T09:01:06.295Z,98113.56
2019-03-15T09:03:26.563Z,98110.14
2019-03-15T09:05:21.331Z,98105.84
2019-03-15T09:07:27.974Z,98113.76
2019-03-15T09:09:36.120Z,98120.37
2019-03-15T09:11:43.069Z,98119.50
2019-03-15T09:13:49.719Z,98117.77
2019-03-15T09:15:56.474Z,98119.06
2019-03-15T09:18:03.145Z,98122.95
2019-03-15T09:20:20.091Z,98126.50
2019-03-15T09:22:26.742Z,98126.42
2019-03-15T09:24:33.417Z,98127.74
2019-03-15T09:26:40.077Z,98128.62
2019-03-15T09:28:46.793Z,98132.55
2019-03-15T09:30:53.475Z,98137.79
2019-03-15T09:33:02.925Z,98133.84
2019-03-15T09:35:09.955Z,98135.58
2019-03-15T09:37:17.917Z,98135.13
2019-03-15T09:39:24.678Z,98140.39
2019-03-15T09:41:39.294Z,98143.39
2019-03-15T09:43:39.793Z,98138.55
2019-03-15T09:45:46.631Z,98141.95
2019-03-15T09:47:53.334Z,98145.78
2019-03-15T09:50:00.175Z,98143.52
2019-03-15T09:52:07.223Z,98142.70
2019-03-15T09:54:13.952Z,98143.41
2019-03-15T09:56:20.619Z,98141.94
2019-03-15T09:58:27.413Z,98146.12
2019-03-15T10:00:34.198Z,98157.27
2019-03-15T10:02:40.869Z,98147.95
2019-03-15T10:04:47.596Z,98153.48
2019-03-15T10:06:54.264Z,98147.16
2019-03-15T10:09:00.953Z,98157.41
2019-03-15T10:11:08.804Z,98158.46
2019-03-15T10:13:15.454Z,98159.06
2019-03-15T10:15:22.135Z,98161.82
2019-03-15T10:17:35.072Z,98155.82
2019-03-15T10:19:41.934Z,98157.17
2019-03-15T10:21:48.889Z,98162.52
2019-03-15T10:23:55.530Z,98167.64
2019-03-15T10:26:02.254Z,98166.23
2019-03-15T10:28:08.937Z,98168.27
2019-03-15T10:30:20.269Z,98166.31
2019-03-15T10:32:26.925Z,98166.60
2019-03-15T10:34:35.667Z,98165.99
2019-03-15T10:36:42.126Z,98167.98
2019-03-15T10:38:48.780Z,98165.20
2019-03-15T10:40:55.538Z,98168.48
2019-03-15T10:43:02.188Z,98170.41
2019-03-15T10:45:11.149Z,98172.55
2019-03-15T10:47:17.836Z,98173.16
2019-03-15T10:49:24.549Z,98177.40
2019-03-15T10:51:31.129Z,98180.64
2019-03-15T10:53:37.813Z,98185.39
2019-03-15T10:55:44.529Z,98173.56
2019-03-15T10:57:51.198Z,98172.75
2019-03-15T10:59:57.964Z,98176.36
2019-03-15T11:02:04.783Z,98171.43
2019-03-15T11:04:11.433Z,98171.73
2019-03-15T11:06:18.187Z,98180.64
2019-03-15T11:08:24.912Z,98186.78
2019-03-15T11:10:31.636Z,98183.91
2019-03-15T11:12:38.321Z,98186.97
2019-03-15T11:14:45.027Z,98192.38
2019-03-15T11:16:51.673Z,98191.58
2019-03-15T11:18:58.360Z,98187.63
2019-03-15T11:21:05.085Z,98188.78
2019-03-15T11:23:11.954Z,98184.02
2019-03-15T11:25:18.708Z,98190.58
2019-03-15T11:27:25.428Z,98187.28
2019-03-15T11:29:32.079Z,98184.72
2019-03-15T11:31:38.827Z,98190.62
2019-03-15T11:33:47.468Z,98196.86
2019-03-15T11:35:53.833Z,98183.85
2019-03-15T11:38:00.520Z,98185.81
2019-03-15T11:40:19.144Z,98183.27
2019-03-15T11:42:25.659Z,98179.11
2019-03-15T11:44:32.397Z,98178.95
2019-03-15T11:46:39.061Z,98176.39
2019-03-15T11:48:45.796Z,98181.36
2019-03-15T11:50:52.485Z,98177.48
2019-03-15T11:52:59.164Z,98185.48
2019-03-15T11:55:07.921Z,98185.25
2019-03-15T11:57:14.668Z,98189.18
2019-03-15T11:59:21.396Z,98189.48
2019-03-15T12:01:28.068Z,98186.42
2019-03-15T12:03:34.743Z,98200.42
2019-03-15T12:05:41.427Z,98192.95
2019-03-15T12:07:48.081Z,98186.09
2019-03-15T12:09:54.756Z,98194.19
2019-03-15T12:12:01.412Z,98191.54
2019-03-15T12:14:08.136Z,98190.52
2019-03-15T12:16:14.816Z,98187.37
2019-03-15T12:18:21.473Z,98192.89
2019-03-15T12:20:28.136Z,98190.88
2019-03-15T12:22:35.018Z,98178.42
2019-03-15T12:24:41.678Z,98186.03
2019-03-15T12:26:48.391Z,98183.33
2019-03-15T12:28:55.070Z,98179.05
2019-03-15T12:31:01.669Z,98183.95
2019-03-15T12:33:08.315Z,98185.81
2019-03-15T12:35:19.106Z,98186.28
2019-03-15T12:37:25.766Z,98181.39
2019-03-15T12:39:32.435Z,98184.03
2019-03-15T12:41:39.146Z,98178.53
2019-03-15T12:43:45.790Z,98189.41
2019-03-15T12:45:52.510Z,98185.83
2019-03-15T12:48:00.353Z,98198.06
2019-03-15T12:50:12.571Z,98190.95
2019-03-15T12:52:20.634Z,98185.72
2019-03-15T12:54:27.648Z,98189.41
2019-03-15T12:56:34.400Z,98187.20
2019-03-15T12:58:41.060Z,98192.50
2019-03-15T13:00:47.815Z,98186.34
2019-03-15T13:02:54.538Z,98193.78
2019-03-15T13:05:01.197Z,98202.05
2019-03-15T13:07:07.869Z,98198.89
2019-03-15T13:09:14.638Z,98195.21
2019-03-15T13:11:21.316Z,98202.53
2019-03-15T13:13:28.258Z,98200.30
2019-03-15T13:15:35.211Z,98203.50
2019-03-15T13:17:41.948Z,98202.18
2019-03-15T13:19:54.948Z,98199.14
2019-03-15T13:21:56.988Z,98197.17
2019-03-15T13:24:04.815Z,98197.55
2019-03-15T13:26:12.229Z,98199.27
2019-03-15T13:28:19.481Z,98201.70
2019-03-15T13:30:27.673Z,98200.72
2019-03-15T13:32:34.350Z,98198.00
2019-03-15T13:34:41.010Z,98200.08
2019-03-15T13:36:47.838Z,98197.45
2019-03-15T13:38:54.516Z,98202.80
2019-03-15T13:41:01.164Z,98201.94
2019-03-15T13:43:07.818Z,98200.66
2019-03-15T13:45:16.018Z,98199.55
2019-03-15T13:47:22.761Z,98209.87
2019-03-15T13:49:29.481Z,98210.18
2019-03-15T13:51:36.471Z,98213.34
2019-03-15T13:53:43.472Z,98212.58
2019-03-15T13:55:50.298Z,98204.95
2019-03-15T13:57:57.073Z,98205.75
2019-03-15T14:00:04.691Z,98198.20
2019-03-15T14:02:11.644Z,98202.59
2019-03-15T14:04:18.335Z,98204.80
2019-03-15T14:06:25.003Z,98213.52
2019-03-15T14:08:31.658Z,98213.41
2019-03-15T14:10:48.547Z,98216.81
2019-03-15T14:12:46.854Z,98210.11
2019-03-15T14:14:53.497Z,98207.47
2019-03-15T14:17:00.195Z,98201.38
2019-03-15T14:19:06.981Z,98194.94
2019-03-15T14:21:13.706Z,98199.46
2019-03-15T14:23:21.414Z,98199.06
2019-03-15T14:25:29.869Z,98210.06
2019-03-15T14:27:37.825Z,98216.67
2019-03-15T14:29:45.790Z,98214.05
2019-03-15T14:31:52.595Z,98206.54
2019-03-15T14:33:59.262Z,98214.42
2019-03-15T14:36:05.973Z,98217.45
2019-03-15T14:38:12.693Z,98209.09
2019-03-15T14:40:19.481Z,98210.33
2019-03-15T14:42:26.281Z,98210.87
2019-03-15T14:44:33.017Z,98218.91
2019-03-15T14:46:39.816Z,98219.87
2019-03-15T14:48:46.632Z,98229.84
2019-03-15T14:50:53.352Z,98230.83
2019-03-15T14:53:00.060Z,98233.83
2019-03-15T14:55:17.739Z,98239.14
2019-03-15T14:57:26.644Z,98239.50
2019-03-15T14:59:33.099Z,98236.02
2019-03-15T15:01:39.775Z,98241.72
2019-03-15T15:03:46.431Z,98235.24
2019-03-15T15:05:53.165Z,98245.79
2019-03-15T15:07:59.915Z,98246.36
2019-03-15T15:10:15.008Z,98238.28
2019-03-15T15:12:21.657Z,98240.98
2019-03-15T15:14:28.443Z,98246.36
2019-03-15T15:16:35.164Z,98244.36
2019-03-15T15:18:41.889Z,98244.44
2019-03-15T15:20:48.582Z,98244.92
2019-03-15T15:22:55.671Z,98253.33
2019-03-15T15:25:02.293Z,98249.47
2019-03-15T15:27:09.052Z,98254.72
2019-03-15T15:29:15.776Z,98247.30
2019-03-15T15:31:22.432Z,98253.85
2019-03-15T15:33:29.127Z,98249.06
2019-03-15T15:35:35.835Z,98242.98
2019-03-15T15:37:44.210Z,98248.69
2019-03-15T15:39:52.737Z,98245.18
2019-03-15T15:41:59.482Z,98249.55
2019-03-15T15:44:06.410Z,98244.73
2019-03-15T15:46:13.214Z,98248.25
2019-03-15T15:48:19.877Z,98244.29
2019-03-15T15:50:26.657Z,98249.11
2019-03-15T15:52:33.483Z,98255.23
2019-03-15T15:54:40.404Z,98245.63
2019-03-15T15:56:47.179Z,98246.49
2019-03-15T15:58:53.873Z,98246.06
2019-03-15T16:01:02.074Z,98243.89
2019-03-15T16:03:09.353Z,98239.51
2019-03-15T16:05:17.169Z,98240.83
2019-03-15T16:07:23.910Z,98238.64
2019-03-15T16:09:30.738Z,98238.20
2019-03-15T16:11:37.663Z,98235.63
2019-03-15T16:13:44.504Z,98243.89
2019-03-15T16:15:51.348Z,98245.25
2019-03-15T16:17:58.082Z,98239.13
2019-03-15T16:20:06.493Z,98240.44
2019-03-15T16:22:13.276Z,98237.83
2019-03-15T16:24:20.140Z,98229.52
2019-03-15T16:26:27.435Z,98228.65
2019-03-15T16:28:36.176Z,98224.28
2019-03-15T16:30:42.579Z,98220.83
2019-03-15T16:32:49.381Z,98221.27
2019-03-15T16:34:56.156Z,98215.61
2019-03-15T16:37:03.259Z,98221.30
2019-03-15T16:39:10.017Z,98221.30
2019-03-15T16:41:16.891Z,98231.41
2019-03-15T16:43:23.664Z,98230.97
2019-03-15T16:45:34.425Z,98231.41
2019-03-15T16:47:41.146Z,98230.11
2019-03-15T16:49:47.956Z,98227.49
2019-03-15T16:51:54.654Z,98225.34
2019-03-15T16:54:01.392Z,98226.66
2019-03-15T16:56:08.178Z,98219.23
2019-03-15T16:58:15.918Z,98214.44
2019-03-15T17:00:22.700Z,98214.45
2019-03-15T17:02:29.567Z,98208.34
2019-03-15T17:04:36.232Z,98213.62
2019-03-15T17:06:42.999Z,98213.62
2019-03-15T17:08:50.096Z,98211.05
2019-03-15T17:10:56.739Z,98203.19
2019-03-15T17:13:03.499Z,98204.50
2019-03-15T17:15:28.605Z,98199.73
2019-03-15T17:17:35.319Z,98196.23
2019-03-15T17:19:42.346Z,98196.23
2019-03-15T17:21:49.405Z,98192.74
2019-03-15T17:23:57.130Z,98193.19
2019-03-15T17:26:03.856Z,98189.25
2019-03-15T17:28:10.558Z,98184.45
2019-03-15T17:30:18.658Z,98181.83
2019-03-15T17:32:26.299Z,98185.36
2019-03-15T17:34:34.093Z,98180.99
2019-03-15T17:36:40.754Z,98184.92
2019-03-15T17:38:47.518Z,98186.23
2019-03-15T17:40:54.262Z,98173.57
2019-03-15T17:43:00.993Z,98184.05
2019-03-15T17:45:09.351Z,98177.53
2019-03-15T17:47:16.131Z,98178.84
2019-03-15T17:49:22.793Z,98178.84
2019-03-15T17:51:29.457Z,98183.20
2019-03-15T17:53:36.229Z,98178.84
2019-03-15T17:55:42.960Z,98177.53
2019-03-15T17:57:49.902Z,98169.67
2019-03-15T18:00:18.733Z,98167.05
2019-03-15T18:02:25.465Z,98174.91
2019-03-15T18:04:32.206Z,98166.20
2019-03-15T18:06:38.977Z,98164.02
2019-03-15T18:08:45.728Z,98165.33
2019-03-15T18:10:52.478Z,98172.31
2019-03-15T18:12:59.250Z,98168.83
2019-03-15T18:15:09.497Z,98160.53
2019-03-15T18:17:17.193Z,98159.20
2019-03-15T18:19:23.981Z,98154.83
2019-03-15T18:21:30.722Z,98156.14
2019-03-15T18:23:37.455Z,98157.89
2019-03-15T18:25:44.335Z,98160.07
2019-03-15T18:27:51.934Z,98160.04
2019-03-15T18:29:58.666Z,98155.67
2019-03-15T18:32:05.442Z,98155.23
2019-03-15T18:34:12.417Z,98148.25
2019-03-15T18:36:20.835Z,98141.27
2019-03-15T18:38:27.716Z,98143.88
2019-03-15T18:40:34.479Z,98145.19
2019-03-15T18:42:41.362Z,98143.02
2019-03-15T18:44:48.121Z,98132.97
2019-03-15T18:46:54.894Z,98132.53
2019-03-15T18:49:01.637Z,98129.05
2019-03-15T18:51:08.420Z,98122.94
2019-03-15T18:53:16.675Z,98124.72
2019-03-15T18:55:23.551Z,98126.94
2019-03-15T18:57:30.304Z,98124.75
2019-03-15T18:59:40.304Z,98123.01
2019-03-15T19:01:47.981Z,98124.31
2019-03-15T19:03:54.888Z,98122.17
2019-03-15T19:06:01.734Z,98118.67
2019-03-15T19:08:08.570Z,98119.98
2019-03-15T19:10:16.508Z,98118.70
2019-03-15T19:12:23.279Z,98109.53
2019-03-15T19:14:31.578Z,98109.97
2019-03-15T19:16:39.939Z,98114.33
2019-03-15T19:18:46.667Z,98102.99
2019-03-15T19:20:53.536Z,98103.00
2019-03-15T19:23:01.433Z,98099.05
2019-03-15T19:25:11.839Z,98088.57
2019-03-15T19:27:18.658Z,98090.72
2019-03-15T19:29:25.453Z,98082.43
2019-03-15T19:31:32.176Z,98073.70
2019-03-15T19:33:38.907Z,98069.73
2019-03-15T19:35:45.674Z,98061.88
2019-03-15T19:37:52.518Z,98061.88
2019-03-15T19:39:59.202Z,98052.27
2019-03-15T19:42:06.072Z,98037.88
2019-03-15T19:44:12.819Z,98046.16
2019-03-15T19:46:19.596Z,98041.36
2019-03-15T19:48:26.281Z,98028.70
2019-03-15T19:50:33.005Z,98026.52
2019-03-15T19:52:40.764Z,98023.42
2019-03-15T19:54:59.952Z,98012.50
2019-03-15T19:56:56.105Z,98011.20
2019-03-15T19:59:04.197Z,98015.12
2019-03-15T20:01:12.324Z,98012.93
2019-03-15T20:03:20.113Z,98005.94
2019-03-15T20:05:26.974Z,97987.59
2019-03-15T20:07:33.825Z,97989.73
2019-03-15T20:09:40.631Z,98000.21
2019-03-15T20:11:47.528Z,97994.97
2019-03-15T20:13:55.516Z,98008.50
2019-03-15T20:16:02.267Z,97996.72
2019-03-15T20:18:09.219Z,98004.58
2019-03-15T20:20:18.814Z,97994.97
2019-03-15T20:22:27.026Z,98002.40
2019-03-15T20:24:36.571Z,97997.64
2019-03-15T20:26:42.349Z,98000.70
2019-03-15T20:28:50.610Z,97990.67
2019-03-15T20:30:57.463Z,97978.88
2019-03-15T20:33:04.435Z,97980.63
2019-03-15T20:35:12.426Z,97974.09
2019-03-15T20:37:19.143Z,97971.47
2019-03-15T20:39:26.511Z,97963.18
2019-03-15T20:41:33.251Z,97957.08
2019-03-15T20:43:40.081Z,97933.56
2019-03-15T20:45:47.006Z,97930.95
2019-03-15T20:47:53.881Z,97935.33
2019-03-15T20:50:00.626Z,97925.30
2019-03-15T20:52:08.467Z,97919.19
2019-03-15T20:54:16.499Z,97905.66
2019-03-15T20:56:25.768Z,97905.66
2019-03-15T20:58:34.071Z,97895.63
2019-03-15T21:00:42.326Z,97899.55
2019-03-15T21:02:50.279Z,97893.88
2019-03-15T21:04:58.604Z,97894.32
2019-03-15T21:07:06.898Z,97889.13
2019-03-15T21:09:13.849Z,97876.93
2019-03-15T21:11:20.609Z,97876.48
2019-03-15T21:13:27.347Z,97872.14
2019-03-15T21:15:35.332Z,97874.33
2019-03-15T21:17:42.027Z,97868.70
2019-03-15T21:19:48.692Z,97849.52
2019-03-15T21:21:56.593Z,97833.82
2019-03-15T21:24:03.607Z,97816.81
2019-03-15T21:26:11.915Z,97811.58
2019-03-15T21:28:21.551Z,97802.41
2019-03-15T21:30:28.746Z,97797.17
2019-03-15T21:32:35.535Z,97793.69
2019-03-15T21:34:42.293Z,97778.85
2019-03-15T21:36:49.443Z,97785.39
2019-03-15T21:38:56.118Z,97779.72
2019-03-15T21:41:02.856Z,97768.37
2019-03-15T21:43:09.867Z,97763.09
2019-03-15T21:45:16.661Z,97762.64
2019-03-15T21:47:24.844Z,97736.90
2019-03-15T21:49:34.978Z,97746.92
2019-03-15T21:51:40.118Z,97741.25
2019-03-15T21:53:46.924Z,97729.05
2019-03-15T21:55:55.171Z,97731.66
2019-03-15T21:58:01.909Z,97719.89
2019-03-15T22:00:19.199Z,97706.80
2019-03-15T22:02:26.128Z,97688.48
2019-03-15T22:04:34.431Z,97680.20
2019-03-15T22:06:41.186Z,97664.06
2019-03-15T22:08:49.117Z,97684.57
2019-03-15T22:10:56.437Z,97666.25
2019-03-15T22:13:04.606Z,97674.53
2019-03-15T22:15:13.363Z,97649.22
2019-03-15T22:17:20.264Z,97661.84
2019-03-15T22:19:27.078Z,97661.84
2019-03-15T22:21:33.951Z,97661.84
2019-03-15T22:23:40.780Z,97654.44
2019-03-15T22:25:50.115Z,97649.66
2019-03-15T22:27:56.984Z,97631.78
2019-03-15T22:30:04.973Z,97626.98
2019-03-15T22:32:11.664Z,97619.62
2019-03-15T22:34:18.414Z,97606.11
2019-03-15T22:36:25.113Z,97599.99
2019-03-15T22:38:31.845Z,97598.25
2019-03-15T22:40:38.679Z,97562.86
2019-03-15T22:42:45.534Z,97559.77
2019-03-15T22:44:52.590Z,97552.31
2019-03-15T22:46:59.277Z,97574.53
2019-03-15T22:49:05.948Z,97578.41
2019-03-15T22:51:12.619Z,97565.28
2019-03-15T22:53:20.837Z,97549.97
2019-03-15T22:55:27.824Z,97543.39
2019-03-15T22:57:36.013Z,97525.94
2019-03-15T22:59:42.688Z,97544.64
2019-03-15T23:01:49.558Z,97526.33
2019-03-15T23:03:56.313Z,97522.89
2019-03-15T23:06:03.024Z,97518.55
2019-03-15T23:08:09.770Z,97508.09
2019-03-15T23:10:16.439Z,97511.16
2019-03-15T23:12:23.125Z,97522.94
2019-03-15T23:14:29.783Z,97506.79
2019-03-15T23:16:36.446Z,97482.36
2019-03-15T23:18:43.138Z,97499.38
2019-03-15T23:20:49.792Z,97516.80
2019-03-15T23:22:56.586Z,97498.45
2019-03-15T23:25:03.277Z,97490.52
2019-03-15T23:27:09.938Z,97475.22
2019-03-15T23:29:16.665Z,97468.25
2019-03-15T23:31:23.390Z,97465.16
2019-03-15T23:33:30.115Z,97475.63
2019-03-15T23:35:52.828Z,97491.30
2019-03-15T23:37:45.217Z,97498.26
2019-03-15T23:39:51.878Z,97459.37
2019-03-15T23:41:58.602Z,97462.86
2019-03-15T23:44:05.383Z,97520.05
2019-03-15T23:46:12.037Z,97563.67
2019-03-15T23:48:18.763Z,97575.52
2019-03-15T23:50:25.527Z,97554.22
2019-03-15T23:52:32.255Z,97559.11
2019-03-15T23:54:38.902Z,97546.95
2019-03-15T23:56:45.658Z,97550.03
2019-03-15T23:58:52.307Z,97550.11
